sensor_id;sensor_type;location;lat;lon;timestamp;noise_LAeq;noise_LA_min;noise_LA_max;noise_LA01;noise_LA95
72276;Laerm;61204;49.980;8.358;2024-03-22T00:01:56;50.99;45.75;56.96;;
72276;Laerm;61204;49.980;8.358;2024-03-22T00:04:22;49.57;44.04;57.52;;
72276;Laerm;61204;49.980;8.358;2024-03-22T00:06:49;51.19;47.59;56.11;;
72276;Laerm;61204;49.980;8.358;2024-03-22T00:09:17;52.10;45.60;58.21;;
72276;Laerm;61204;49.980;8.358;2024-03-22T00:11:44;52.64;46.59;58.86;;
72276;Laerm;61204;49.980;8.358;2024-03-22T00:14:11;53.18;46.97;59.37;;
72276;Laerm;61204;49.980;8.358;2024-03-22T00:16:38;55.21;48.68;61.24;;
72276;Laerm;61204;49.980;8.358;2024-03-22T00:19:04;51.76;44.54;60.24;;
72276;Laerm;61204;49.980;8.358;2024-03-22T00:21:30;47.44;40.76;53.09;;
72276;Laerm;61204;49.980;8.358;2024-03-22T00:23:57;49.18;43.59;54.94;;
72276;Laerm;61204;49.980;8.358;2024-03-22T00:26:23;49.76;43.63;57.18;;
72276;Laerm;61204;49.980;8.358;2024-03-22T00:28:49;48.82;44.01;53.37;;
72276;Laerm;61204;49.980;8.358;2024-03-22T00:31:16;49.29;44.10;54.53;;
72276;Laerm;61204;49.980;8.358;2024-03-22T00:33:44;53.58;48.12;62.06;;
72276;Laerm;61204;49.980;8.358;2024-03-22T00:36:10;53.38;47.59;60.09;;
72276;Laerm;61204;49.980;8.358;2024-03-22T00:38:36;56.93;49.67;63.87;;
72276;Laerm;61204;49.980;8.358;2024-03-22T00:41:01;53.25;46.92;58.85;;
72276;Laerm;61204;49.980;8.358;2024-03-22T00:43:27;50.39;44.86;59.60;;
72276;Laerm;61204;49.980;8.358;2024-03-22T00:45:53;51.27;45.57;56.66;;
72276;Laerm;61204;49.980;8.358;2024-03-22T00:48:18;49.36;43.71;56.56;;
72276;Laerm;61204;49.980;8.358;2024-03-22T00:50:44;48.81;43.74;53.86;;
72276;Laerm;61204;49.980;8.358;2024-03-22T00:53:10;50.52;45.65;56.18;;
72276;Laerm;61204;49.980;8.358;2024-03-22T00:55:36;51.84;44.56;56.38;;
72276;Laerm;61204;49.980;8.358;2024-03-22T00:58:01;51.47;45.57;56.78;;
72276;Laerm;61204;49.980;8.358;2024-03-22T01:00:27;51.92;46.39;57.51;;
72276;Laerm;61204;49.980;8.358;2024-03-22T01:02:53;51.74;46.13;57.63;;
72276;Laerm;61204;49.980;8.358;2024-03-22T01:05:18;50.51;44.44;57.36;;
72276;Laerm;61204;49.980;8.358;2024-03-22T01:07:44;49.98;44.81;55.77;;
72276;Laerm;61204;49.980;8.358;2024-03-22T01:10:11;49.34;44.12;56.39;;
72276;Laerm;61204;49.980;8.358;2024-03-22T01:12:38;51.19;47.30;55.33;;
72276;Laerm;61204;49.980;8.358;2024-03-22T01:15:06;50.63;45.44;57.65;;
72276;Laerm;61204;49.980;8.358;2024-03-22T01:17:33;50.95;45.45;60.97;;
72276;Laerm;61204;49.980;8.358;2024-03-22T01:19:59;54.32;48.02;61.43;;
72276;Laerm;61204;49.980;8.358;2024-03-22T01:22:25;54.28;46.92;60.39;;
72276;Laerm;61204;49.980;8.358;2024-03-22T01:24:52;55.68;47.69;61.34;;
72276;Laerm;61204;49.980;8.358;2024-03-22T01:27:19;53.95;47.61;59.13;;
72276;Laerm;61204;49.980;8.358;2024-03-22T01:29:45;52.90;46.15;59.64;;
72276;Laerm;61204;49.980;8.358;2024-03-22T01:32:13;53.30;46.81;59.03;;
72276;Laerm;61204;49.980;8.358;2024-03-22T01:34:39;54.33;48.83;60.43;;
72276;Laerm;61204;49.980;8.358;2024-03-22T01:37:06;51.85;46.11;56.92;;
72276;Laerm;61204;49.980;8.358;2024-03-22T01:39:34;53.34;47.78;57.89;;
72276;Laerm;61204;49.980;8.358;2024-03-22T01:41:59;53.88;49.55;60.12;;
72276;Laerm;61204;49.980;8.358;2024-03-22T01:44:31;53.45;47.63;58.57;;
72276;Laerm;61204;49.980;8.358;2024-03-22T01:46:58;51.83;45.03;57.85;;
72276;Laerm;61204;49.980;8.358;2024-03-22T01:49:28;53.37;48.27;59.25;;
72276;Laerm;61204;49.980;8.358;2024-03-22T01:51:55;52.55;46.84;57.55;;
72276;Laerm;61204;49.980;8.358;2024-03-22T01:54:21;53.78;49.47;59.72;;
72276;Laerm;61204;49.980;8.358;2024-03-22T01:56:52;52.74;48.40;58.86;;
72276;Laerm;61204;49.980;8.358;2024-03-22T01:59:18;52.46;47.40;59.46;;
72276;Laerm;61204;49.980;8.358;2024-03-22T02:01:44;53.09;44.09;61.98;;
72276;Laerm;61204;49.980;8.358;2024-03-22T02:04:10;49.01;44.39;53.40;;
72276;Laerm;61204;49.980;8.358;2024-03-22T02:06:35;52.22;47.57;57.85;;
72276;Laerm;61204;49.980;8.358;2024-03-22T02:09:01;53.15;49.71;58.36;;
72276;Laerm;61204;49.980;8.358;2024-03-22T02:11:32;54.63;49.72;59.66;;
72276;Laerm;61204;49.980;8.358;2024-03-22T02:13:57;50.98;46.43;58.11;;
72276;Laerm;61204;49.980;8.358;2024-03-22T02:16:23;49.85;46.03;54.63;;
72276;Laerm;61204;49.980;8.358;2024-03-22T02:18:49;50.10;45.81;58.43;;
72276;Laerm;61204;49.980;8.358;2024-03-22T02:21:17;51.02;45.88;56.48;;
72276;Laerm;61204;49.980;8.358;2024-03-22T02:23:45;51.54;43.28;59.83;;
72276;Laerm;61204;49.980;8.358;2024-03-22T02:26:11;53.26;46.58;60.01;;
72276;Laerm;61204;49.980;8.358;2024-03-22T02:28:39;53.29;47.31;60.53;;
72276;Laerm;61204;49.980;8.358;2024-03-22T02:31:05;55.23;47.23;61.18;;
72276;Laerm;61204;49.980;8.358;2024-03-22T02:33:31;54.93;50.04;59.87;;
72276;Laerm;61204;49.980;8.358;2024-03-22T02:35:57;51.61;44.81;57.25;;
72276;Laerm;61204;49.980;8.358;2024-03-22T02:38:23;52.37;48.11;66.79;;
72276;Laerm;61204;49.980;8.358;2024-03-22T02:40:52;49.56;45.18;55.35;;
72276;Laerm;61204;49.980;8.358;2024-03-22T02:43:20;48.54;43.13;56.11;;
72276;Laerm;61204;49.980;8.358;2024-03-22T02:45:49;50.93;47.18;54.42;;
72276;Laerm;61204;49.980;8.358;2024-03-22T02:48:15;51.09;43.81;55.27;;
72276;Laerm;61204;49.980;8.358;2024-03-22T02:50:43;50.71;44.05;55.36;;
72276;Laerm;61204;49.980;8.358;2024-03-22T02:53:09;52.02;46.75;61.44;;
72276;Laerm;61204;49.980;8.358;2024-03-22T02:55:39;50.66;46.53;62.51;;
72276;Laerm;61204;49.980;8.358;2024-03-22T02:58:06;51.92;46.38;61.32;;
72276;Laerm;61204;49.980;8.358;2024-03-22T03:00:38;50.65;45.74;55.69;;
72276;Laerm;61204;49.980;8.358;2024-03-22T03:03:06;51.04;45.16;57.01;;
72276;Laerm;61204;49.980;8.358;2024-03-22T03:05:32;52.94;47.34;59.15;;
72276;Laerm;61204;49.980;8.358;2024-03-22T03:07:57;51.94;47.45;57.36;;
72276;Laerm;61204;49.980;8.358;2024-03-22T03:10:25;52.37;49.06;57.41;;
72276;Laerm;61204;49.980;8.358;2024-03-22T03:12:51;51.92;46.50;57.39;;
72276;Laerm;61204;49.980;8.358;2024-03-22T03:15:17;52.61;48.59;56.29;;
72276;Laerm;61204;49.980;8.358;2024-03-22T03:17:43;51.03;47.05;56.19;;
72276;Laerm;61204;49.980;8.358;2024-03-22T03:20:09;54.27;50.16;59.13;;
72276;Laerm;61204;49.980;8.358;2024-03-22T03:22:41;56.85;51.02;67.73;;
72276;Laerm;61204;49.980;8.358;2024-03-22T03:25:08;56.50;51.90;67.79;;
72276;Laerm;61204;49.980;8.358;2024-03-22T03:27:34;58.94;53.48;69.43;;
72276;Laerm;61204;49.980;8.358;2024-03-22T03:30:00;58.31;52.49;67.77;;
72276;Laerm;61204;49.980;8.358;2024-03-22T03:32:28;57.83;51.70;71.08;;
72276;Laerm;61204;49.980;8.358;2024-03-22T03:34:54;57.90;50.77;69.22;;
72276;Laerm;61204;49.980;8.358;2024-03-22T03:37:19;59.68;53.29;70.73;;
72276;Laerm;61204;49.980;8.358;2024-03-22T03:39:45;58.41;52.55;68.10;;
72276;Laerm;61204;49.980;8.358;2024-03-22T03:42:11;58.29;51.79;69.18;;
72276;Laerm;61204;49.980;8.358;2024-03-22T03:44:36;57.70;49.97;68.07;;
72276;Laerm;61204;49.980;8.358;2024-03-22T03:47:03;57.97;51.44;70.48;;
72276;Laerm;61204;49.980;8.358;2024-03-22T03:49:28;58.07;51.88;67.23;;
72276;Laerm;61204;49.980;8.358;2024-03-22T03:51:54;58.19;51.84;68.61;;
72276;Laerm;61204;49.980;8.358;2024-03-22T03:54:19;57.84;50.53;69.81;;
72276;Laerm;61204;49.980;8.358;2024-03-22T03:56:45;59.28;52.69;68.71;;
72276;Laerm;61204;49.980;8.358;2024-03-22T03:59:10;58.48;51.52;67.70;;
72276;Laerm;61204;49.980;8.358;2024-03-22T04:01:36;58.90;51.89;67.32;;
72276;Laerm;61204;49.980;8.358;2024-03-22T04:04:03;60.43;54.97;67.62;;
72276;Laerm;61204;49.980;8.358;2024-03-22T04:06:29;59.14;52.07;67.83;;
72276;Laerm;61204;49.980;8.358;2024-03-22T04:09:00;61.28;51.71;74.03;;
72276;Laerm;61204;49.980;8.358;2024-03-22T04:11:28;61.99;52.08;73.69;;
72276;Laerm;61204;49.980;8.358;2024-03-22T04:13:54;62.24;51.97;74.97;;
72276;Laerm;61204;49.980;8.358;2024-03-22T04:16:20;62.28;52.81;74.13;;
72276;Laerm;61204;49.980;8.358;2024-03-22T04:18:46;60.27;53.33;72.30;;
72276;Laerm;61204;49.980;8.358;2024-03-22T04:21:11;60.56;52.62;71.82;;
72276;Laerm;61204;49.980;8.358;2024-03-22T04:23:37;60.79;54.48;73.37;;
72276;Laerm;61204;49.980;8.358;2024-03-22T04:26:02;61.55;54.16;74.91;;
72276;Laerm;61204;49.980;8.358;2024-03-22T04:28:31;58.35;52.87;66.07;;
72276;Laerm;61204;49.980;8.358;2024-03-22T04:31:05;60.65;53.73;74.90;;
72276;Laerm;61204;49.980;8.358;2024-03-22T04:33:32;62.83;56.50;74.62;;
72276;Laerm;61204;49.980;8.358;2024-03-22T04:35:59;64.00;54.97;76.89;;
72276;Laerm;61204;49.980;8.358;2024-03-22T04:38:28;62.23;56.22;71.85;;
72276;Laerm;61204;49.980;8.358;2024-03-22T04:40:56;61.06;56.32;70.52;;
72276;Laerm;61204;49.980;8.358;2024-03-22T04:43:26;63.57;55.20;77.08;;
72276;Laerm;61204;49.980;8.358;2024-03-22T04:45:51;63.19;56.70;76.28;;
72276;Laerm;61204;49.980;8.358;2024-03-22T04:48:20;61.53;56.90;74.95;;
72276;Laerm;61204;49.980;8.358;2024-03-22T04:50:48;60.49;56.13;67.35;;
72276;Laerm;61204;49.980;8.358;2024-03-22T04:53:20;60.04;55.95;67.75;;
72276;Laerm;61204;49.980;8.358;2024-03-22T04:55:50;60.19;55.70;70.65;;
72276;Laerm;61204;49.980;8.358;2024-03-22T04:58:19;59.49;54.15;68.45;;
72276;Laerm;61204;49.980;8.358;2024-03-22T05:00:46;58.06;54.24;64.41;;
72276;Laerm;61204;49.980;8.358;2024-03-22T05:03:13;58.88;54.27;65.04;;
72276;Laerm;61204;49.980;8.358;2024-03-22T05:05:40;58.07;54.07;64.94;;
72276;Laerm;61204;49.980;8.358;2024-03-22T05:08:07;57.77;54.12;63.31;;
72276;Laerm;61204;49.980;8.358;2024-03-22T05:10:34;57.64;53.04;67.45;;
72276;Laerm;61204;49.980;8.358;2024-03-22T05:13:00;56.09;52.43;62.84;;
72276;Laerm;61204;49.980;8.358;2024-03-22T05:15:26;56.43;52.64;62.85;;
72276;Laerm;61204;49.980;8.358;2024-03-22T05:17:52;57.06;53.35;63.28;;
72276;Laerm;61204;49.980;8.358;2024-03-22T05:20:19;58.52;53.93;64.59;;
72276;Laerm;61204;49.980;8.358;2024-03-22T05:22:46;57.82;53.88;62.43;;
72276;Laerm;61204;49.980;8.358;2024-03-22T05:25:12;57.97;55.23;62.12;;
72276;Laerm;61204;49.980;8.358;2024-03-22T05:27:38;59.09;55.02;72.10;;
72276;Laerm;61204;49.980;8.358;2024-03-22T05:30:04;59.34;54.81;73.82;;
72276;Laerm;61204;49.980;8.358;2024-03-22T05:32:33;58.66;54.34;72.78;;
72276;Laerm;61204;49.980;8.358;2024-03-22T05:35:00;58.18;55.13;71.76;;
72276;Laerm;61204;49.980;8.358;2024-03-22T05:37:26;66.93;54.73;89.53;;
72276;Laerm;61204;49.980;8.358;2024-03-22T05:39:54;71.24;56.68;91.26;;
72276;Laerm;61204;49.980;8.358;2024-03-22T05:42:20;59.97;56.02;69.29;;
72276;Laerm;61204;49.980;8.358;2024-03-22T05:44:46;60.36;55.78;77.13;;
72276;Laerm;61204;49.980;8.358;2024-03-22T05:47:11;59.58;54.83;72.64;;
72276;Laerm;61204;49.980;8.358;2024-03-22T05:49:37;58.53;54.72;63.85;;
72276;Laerm;61204;49.980;8.358;2024-03-22T05:52:03;59.23;55.56;69.06;;
72276;Laerm;61204;49.980;8.358;2024-03-22T05:54:28;60.47;55.66;67.46;;
72276;Laerm;61204;49.980;8.358;2024-03-22T05:56:56;59.35;55.27;72.44;;
72276;Laerm;61204;49.980;8.358;2024-03-22T05:59:21;58.89;55.06;65.24;;
72276;Laerm;61204;49.980;8.358;2024-03-22T06:01:47;58.22;54.77;64.22;;
72276;Laerm;61204;49.980;8.358;2024-03-22T06:04:12;57.87;54.59;64.40;;
72276;Laerm;61204;49.980;8.358;2024-03-22T06:06:38;57.41;53.80;60.92;;
72276;Laerm;61204;49.980;8.358;2024-03-22T06:09:08;57.72;53.58;71.25;;
72276;Laerm;61204;49.980;8.358;2024-03-22T06:11:37;57.53;53.24;68.03;;
72276;Laerm;61204;49.980;8.358;2024-03-22T06:14:02;57.60;54.55;61.61;;
72276;Laerm;61204;49.980;8.358;2024-03-22T06:16:28;58.05;53.60;62.16;;
72276;Laerm;61204;49.980;8.358;2024-03-22T06:18:54;57.31;53.67;62.63;;
72276;Laerm;61204;49.980;8.358;2024-03-22T06:21:19;57.47;54.06;64.30;;
72276;Laerm;61204;49.980;8.358;2024-03-22T06:23:53;56.23;51.98;62.50;;
72276;Laerm;61204;49.980;8.358;2024-03-22T06:26:18;57.12;53.08;67.73;;
72276;Laerm;61204;49.980;8.358;2024-03-22T06:28:44;57.37;52.56;80.55;;
72276;Laerm;61204;49.980;8.358;2024-03-22T06:31:10;56.66;51.51;65.15;;
72276;Laerm;61204;49.980;8.358;2024-03-22T06:33:35;58.59;53.04;87.18;;
72276;Laerm;61204;49.980;8.358;2024-03-22T06:36:02;56.49;52.23;63.44;;
72276;Laerm;61204;49.980;8.358;2024-03-22T06:38:29;56.86;53.31;64.27;;
72276;Laerm;61204;49.980;8.358;2024-03-22T06:40:54;57.62;53.12;65.33;;
72276;Laerm;61204;49.980;8.358;2024-03-22T06:43:20;56.64;53.22;64.52;;
72276;Laerm;61204;49.980;8.358;2024-03-22T06:45:46;56.70;53.04;64.43;;
72276;Laerm;61204;49.980;8.358;2024-03-22T06:48:11;56.25;51.31;63.73;;
72276;Laerm;61204;49.980;8.358;2024-03-22T06:50:37;56.63;51.64;71.03;;
72276;Laerm;61204;49.980;8.358;2024-03-22T06:53:03;55.50;51.31;62.51;;
72276;Laerm;61204;49.980;8.358;2024-03-22T06:55:28;54.91;50.56;65.46;;
72276;Laerm;61204;49.980;8.358;2024-03-22T06:57:54;53.43;49.68;61.59;;
72276;Laerm;61204;49.980;8.358;2024-03-22T07:00:19;55.84;50.93;62.58;;
72276;Laerm;61204;49.980;8.358;2024-03-22T07:02:45;55.43;50.95;61.29;;
72276;Laerm;61204;49.980;8.358;2024-03-22T07:05:11;54.80;50.70;60.65;;
72276;Laerm;61204;49.980;8.358;2024-03-22T07:07:38;53.70;49.63;64.34;;
72276;Laerm;61204;49.980;8.358;2024-03-22T07:10:05;54.78;51.32;64.59;;
72276;Laerm;61204;49.980;8.358;2024-03-22T07:12:36;54.39;50.75;64.17;;
72276;Laerm;61204;49.980;8.358;2024-03-22T07:15:02;56.73;51.88;76.38;;
72276;Laerm;61204;49.980;8.358;2024-03-22T07:17:29;55.61;51.25;62.36;;
72276;Laerm;61204;49.980;8.358;2024-03-22T07:19:55;56.22;51.14;65.71;;
72276;Laerm;61204;49.980;8.358;2024-03-22T07:22:21;55.92;51.74;68.69;;
72276;Laerm;61204;49.980;8.358;2024-03-22T07:24:51;59.06;51.15;74.08;;
72276;Laerm;61204;49.980;8.358;2024-03-22T07:27:16;55.51;51.26;64.08;;
72276;Laerm;61204;49.980;8.358;2024-03-22T07:29:42;55.59;51.47;67.48;;
72276;Laerm;61204;49.980;8.358;2024-03-22T07:32:11;55.64;50.47;69.01;;
72276;Laerm;61204;49.980;8.358;2024-03-22T07:34:39;55.50;51.11;64.70;;
72276;Laerm;61204;49.980;8.358;2024-03-22T07:37:07;61.44;52.71;76.88;;
72276;Laerm;61204;49.980;8.358;2024-03-22T07:39:33;60.02;51.73;75.97;;
72276;Laerm;61204;49.980;8.358;2024-03-22T07:41:58;55.07;51.25;65.91;;
72276;Laerm;61204;49.980;8.358;2024-03-22T07:44:24;56.47;52.79;62.42;;
72276;Laerm;61204;49.980;8.358;2024-03-22T07:46:50;55.81;51.52;69.78;;
72276;Laerm;61204;49.980;8.358;2024-03-22T07:49:16;55.09;51.03;71.51;;
72276;Laerm;61204;49.980;8.358;2024-03-22T07:51:42;55.38;50.72;67.61;;
72276;Laerm;61204;49.980;8.358;2024-03-22T07:54:07;54.38;50.27;64.89;;
72276;Laerm;61204;49.980;8.358;2024-03-22T07:56:35;54.48;51.12;61.67;;
72276;Laerm;61204;49.980;8.358;2024-03-22T07:59:00;53.80;49.06;62.17;;
72276;Laerm;61204;49.980;8.358;2024-03-22T08:01:26;55.53;49.00;68.36;;
72276;Laerm;61204;49.980;8.358;2024-03-22T08:03:52;53.88;49.61;61.13;;
72276;Laerm;61204;49.980;8.358;2024-03-22T08:06:18;55.09;50.92;62.96;;
72276;Laerm;61204;49.980;8.358;2024-03-22T08:08:46;56.40;51.32;65.64;;
72276;Laerm;61204;49.980;8.358;2024-03-22T08:11:13;55.87;50.86;63.75;;
72276;Laerm;61204;49.980;8.358;2024-03-22T08:13:38;54.72;50.83;62.06;;
72276;Laerm;61204;49.980;8.358;2024-03-22T08:16:05;54.24;50.64;57.82;;
72276;Laerm;61204;49.980;8.358;2024-03-22T08:18:32;54.75;49.78;69.92;;
72276;Laerm;61204;49.980;8.358;2024-03-22T08:21:01;53.01;48.55;59.32;;
72276;Laerm;61204;49.980;8.358;2024-03-22T08:23:29;53.35;48.93;58.98;;
72276;Laerm;61204;49.980;8.358;2024-03-22T08:25:55;53.23;49.71;62.24;;
72276;Laerm;61204;49.980;8.358;2024-03-22T08:28:23;53.09;49.07;61.08;;
72276;Laerm;61204;49.980;8.358;2024-03-22T08:30:51;54.20;50.27;62.68;;
72276;Laerm;61204;49.980;8.358;2024-03-22T08:33:18;54.50;49.77;60.92;;
72276;Laerm;61204;49.980;8.358;2024-03-22T08:35:43;53.60;50.89;57.74;;
72276;Laerm;61204;49.980;8.358;2024-03-22T08:38:09;54.59;50.74;64.41;;
72276;Laerm;61204;49.980;8.358;2024-03-22T08:40:40;54.28;49.04;63.29;;
72276;Laerm;61204;49.980;8.358;2024-03-22T08:43:06;54.81;50.25;65.83;;
72276;Laerm;61204;49.980;8.358;2024-03-22T08:45:36;53.89;50.89;64.35;;
72276;Laerm;61204;49.980;8.358;2024-03-22T08:48:01;55.26;50.61;64.10;;
72276;Laerm;61204;49.980;8.358;2024-03-22T08:50:30;55.63;51.03;66.79;;
72276;Laerm;61204;49.980;8.358;2024-03-22T08:52:56;54.82;50.57;61.50;;
72276;Laerm;61204;49.980;8.358;2024-03-22T08:55:22;54.89;50.49;59.84;;
72276;Laerm;61204;49.980;8.358;2024-03-22T08:57:49;54.72;50.18;63.47;;
72276;Laerm;61204;49.980;8.358;2024-03-22T09:00:17;55.85;50.98;65.10;;
72276;Laerm;61204;49.980;8.358;2024-03-22T09:02:43;55.46;50.89;62.94;;
72276;Laerm;61204;49.980;8.358;2024-03-22T09:05:09;55.36;51.37;61.32;;
72276;Laerm;61204;49.980;8.358;2024-03-22T09:07:34;54.92;50.54;67.23;;
72276;Laerm;61204;49.980;8.358;2024-03-22T09:10:00;54.51;50.74;60.13;;
72276;Laerm;61204;49.980;8.358;2024-03-22T09:12:25;54.95;51.38;62.98;;
72276;Laerm;61204;49.980;8.358;2024-03-22T09:14:51;56.89;51.04;66.03;;
72276;Laerm;61204;49.980;8.358;2024-03-22T09:17:16;56.22;51.27;63.64;;
72276;Laerm;61204;49.980;8.358;2024-03-22T09:19:42;56.91;51.14;70.35;;
72276;Laerm;61204;49.980;8.358;2024-03-22T09:22:08;55.74;51.75;66.10;;
72276;Laerm;61204;49.980;8.358;2024-03-22T09:24:34;58.31;51.74;71.85;;
72276;Laerm;61204;49.980;8.358;2024-03-22T09:27:00;55.82;51.51;65.31;;
72276;Laerm;61204;49.980;8.358;2024-03-22T09:29:25;55.81;51.89;63.19;;
72276;Laerm;61204;49.980;8.358;2024-03-22T09:31:51;56.22;52.49;61.46;;
72276;Laerm;61204;49.980;8.358;2024-03-22T09:34:16;54.06;50.05;62.84;;
72276;Laerm;61204;49.980;8.358;2024-03-22T09:36:42;54.57;50.68;60.23;;
72276;Laerm;61204;49.980;8.358;2024-03-22T09:39:08;54.87;49.97;68.28;;
72276;Laerm;61204;49.980;8.358;2024-03-22T09:41:43;55.63;49.45;63.26;;
72276;Laerm;61204;49.980;8.358;2024-03-22T09:44:13;54.96;49.69;64.07;;
72276;Laerm;61204;49.980;8.358;2024-03-22T09:46:42;53.63;49.95;65.44;;
72276;Laerm;61204;49.980;8.358;2024-03-22T09:49:10;55.82;50.74;67.99;;
72276;Laerm;61204;49.980;8.358;2024-03-22T09:51:41;56.19;51.07;74.64;;
72276;Laerm;61204;49.980;8.358;2024-03-22T09:54:10;56.91;51.95;64.33;;
72276;Laerm;61204;49.980;8.358;2024-03-22T09:56:39;57.31;51.30;69.89;;
72276;Laerm;61204;49.980;8.358;2024-03-22T09:59:08;57.42;50.41;70.23;;
72276;Laerm;61204;49.980;8.358;2024-03-22T10:01:40;53.10;49.69;63.38;;
72276;Laerm;61204;49.980;8.358;2024-03-22T10:04:06;54.32;49.18;61.64;;
72276;Laerm;61204;49.980;8.358;2024-03-22T10:06:35;55.07;51.03;66.48;;
72276;Laerm;61204;49.980;8.358;2024-03-22T10:09:02;53.90;50.30;61.84;;
72276;Laerm;61204;49.980;8.358;2024-03-22T10:11:29;53.77;50.07;64.27;;
72276;Laerm;61204;49.980;8.358;2024-03-22T10:14:00;54.56;49.85;66.67;;
72276;Laerm;61204;49.980;8.358;2024-03-22T10:16:26;56.31;50.89;65.29;;
72276;Laerm;61204;49.980;8.358;2024-03-22T10:18:51;55.38;51.32;62.40;;
72276;Laerm;61204;49.980;8.358;2024-03-22T10:21:19;55.00;50.81;61.38;;
72276;Laerm;61204;49.980;8.358;2024-03-22T10:23:44;54.70;49.67;63.75;;
72276;Laerm;61204;49.980;8.358;2024-03-22T10:26:13;54.79;51.20;60.68;;
72276;Laerm;61204;49.980;8.358;2024-03-22T10:28:46;55.51;51.46;60.03;;
72276;Laerm;61204;49.980;8.358;2024-03-22T10:31:13;55.84;50.61;65.73;;
72276;Laerm;61204;49.980;8.358;2024-03-22T10:33:41;54.43;50.53;66.31;;
72276;Laerm;61204;49.980;8.358;2024-03-22T10:36:10;54.85;50.85;67.67;;
72276;Laerm;61204;49.980;8.358;2024-03-22T10:38:39;56.77;51.25;69.19;;
72276;Laerm;61204;49.980;8.358;2024-03-22T10:41:06;57.23;52.59;66.91;;
72276;Laerm;61204;49.980;8.358;2024-03-22T10:43:32;56.81;52.33;63.08;;
72276;Laerm;61204;49.980;8.358;2024-03-22T10:46:02;56.77;53.08;67.03;;
72276;Laerm;61204;49.980;8.358;2024-03-22T10:48:31;57.61;53.78;65.98;;
72276;Laerm;61204;49.980;8.358;2024-03-22T10:51:01;57.29;52.11;68.26;;
72276;Laerm;61204;49.980;8.358;2024-03-22T10:53:34;57.34;52.47;63.93;;
72276;Laerm;61204;49.980;8.358;2024-03-22T10:56:06;57.45;53.58;63.95;;
72276;Laerm;61204;49.980;8.358;2024-03-22T10:58:33;56.81;52.83;62.67;;
72276;Laerm;61204;49.980;8.358;2024-03-22T11:01:03;56.46;53.37;65.96;;
72276;Laerm;61204;49.980;8.358;2024-03-22T11:03:30;56.46;52.71;61.39;;
72276;Laerm;61204;49.980;8.358;2024-03-22T11:06:01;56.33;51.64;64.18;;
72276;Laerm;61204;49.980;8.358;2024-03-22T11:08:30;57.11;51.00;71.89;;
72276;Laerm;61204;49.980;8.358;2024-03-22T11:11:12;56.50;49.76;76.23;;
72276;Laerm;61204;49.980;8.358;2024-03-22T11:13:41;60.80;50.59;82.06;;
72276;Laerm;61204;49.980;8.358;2024-03-22T11:16:09;58.46;51.78;74.95;;
72276;Laerm;61204;49.980;8.358;2024-03-22T11:18:35;58.73;52.13;76.68;;
72276;Laerm;61204;49.980;8.358;2024-03-22T11:21:02;58.70;51.78;73.67;;
72276;Laerm;61204;49.980;8.358;2024-03-22T11:23:28;65.84;52.19;85.11;;
72276;Laerm;61204;49.980;8.358;2024-03-22T11:25:56;69.30;52.35;87.44;;
72276;Laerm;61204;49.980;8.358;2024-03-22T11:28:22;61.63;51.95;82.08;;
72276;Laerm;61204;49.980;8.358;2024-03-22T11:30:48;62.68;52.27;87.46;;
72276;Laerm;61204;49.980;8.358;2024-03-22T11:33:14;68.60;51.58;89.49;;
72276;Laerm;61204;49.980;8.358;2024-03-22T11:35:39;65.69;53.20;83.35;;
72276;Laerm;61204;49.980;8.358;2024-03-22T11:38:05;63.63;51.72;84.68;;
72276;Laerm;61204;49.980;8.358;2024-03-22T11:40:31;63.74;52.48;83.72;;
72276;Laerm;61204;49.980;8.358;2024-03-22T11:43:00;66.03;52.67;83.54;;
72276;Laerm;61204;49.980;8.358;2024-03-22T11:45:30;63.40;52.07;81.36;;
72276;Laerm;61204;49.980;8.358;2024-03-22T11:48:02;57.02;51.59;67.56;;
72276;Laerm;61204;49.980;8.358;2024-03-22T11:50:29;56.97;52.28;68.35;;
72276;Laerm;61204;49.980;8.358;2024-03-22T11:52:56;58.83;53.39;75.82;;
72276;Laerm;61204;49.980;8.358;2024-03-22T11:55:21;57.73;52.31;71.34;;
72276;Laerm;61204;49.980;8.358;2024-03-22T11:57:50;56.91;52.26;65.44;;
72276;Laerm;61204;49.980;8.358;2024-03-22T12:00:18;57.99;53.56;70.42;;
72276;Laerm;61204;49.980;8.358;2024-03-22T12:02:45;57.13;52.85;68.96;;
72276;Laerm;61204;49.980;8.358;2024-03-22T12:05:13;62.15;50.43;81.20;;
72276;Laerm;61204;49.980;8.358;2024-03-22T12:07:39;62.03;52.04;81.70;;
72276;Laerm;61204;49.980;8.358;2024-03-22T12:10:06;62.64;52.06;81.62;;
72276;Laerm;61204;49.980;8.358;2024-03-22T12:12:32;60.55;51.07;79.41;;
72276;Laerm;61204;49.980;8.358;2024-03-22T12:14:58;65.21;52.01;86.06;;
72276;Laerm;61204;49.980;8.358;2024-03-22T12:17:26;65.16;52.04;84.70;;
72276;Laerm;61204;49.980;8.358;2024-03-22T12:19:51;65.81;50.50;85.29;;
72276;Laerm;61204;49.980;8.358;2024-03-22T12:22:17;64.79;52.47;81.57;;
72276;Laerm;61204;49.980;8.358;2024-03-22T12:24:43;60.70;51.40;78.58;;
72276;Laerm;61204;49.980;8.358;2024-03-22T12:27:09;60.50;52.33;77.39;;
72276;Laerm;61204;49.980;8.358;2024-03-22T12:29:35;62.84;52.22;83.63;;
72276;Laerm;61204;49.980;8.358;2024-03-22T12:32:02;63.51;53.14;82.99;;
72276;Laerm;61204;49.980;8.358;2024-03-22T12:34:30;62.25;51.35;84.63;;
72276;Laerm;61204;49.980;8.358;2024-03-22T12:36:56;61.58;51.24;78.74;;
72276;Laerm;61204;49.980;8.358;2024-03-22T12:39:22;62.26;52.19;79.07;;
72276;Laerm;61204;49.980;8.358;2024-03-22T12:41:47;59.62;52.95;78.69;;
72276;Laerm;61204;49.980;8.358;2024-03-22T12:44:13;60.15;52.99;76.72;;
72276;Laerm;61204;49.980;8.358;2024-03-22T12:46:39;59.92;54.04;81.50;;
72276;Laerm;61204;49.980;8.358;2024-03-22T12:49:07;60.47;52.78;76.42;;
72276;Laerm;61204;49.980;8.358;2024-03-22T12:51:38;66.82;53.94;84.80;;
72276;Laerm;61204;49.980;8.358;2024-03-22T12:54:04;62.77;53.31;78.71;;
72276;Laerm;61204;49.980;8.358;2024-03-22T12:56:31;58.90;52.87;74.45;;
72276;Laerm;61204;49.980;8.358;2024-03-22T12:59:00;59.54;52.05;78.76;;
72276;Laerm;61204;49.980;8.358;2024-03-22T13:01:26;58.04;50.91;75.27;;
72276;Laerm;61204;49.980;8.358;2024-03-22T13:03:51;64.13;53.21;81.50;;
72276;Laerm;61204;49.980;8.358;2024-03-22T13:06:17;61.30;52.75;81.87;;
72276;Laerm;61204;49.980;8.358;2024-03-22T13:08:42;62.32;52.60;83.01;;
72276;Laerm;61204;49.980;8.358;2024-03-22T13:11:08;58.11;52.76;76.66;;
72276;Laerm;61204;49.980;8.358;2024-03-22T13:13:35;59.13;52.40;74.67;;
72276;Laerm;61204;49.980;8.358;2024-03-22T13:16:01;64.34;53.48;81.62;;
72276;Laerm;61204;49.980;8.358;2024-03-22T13:18:29;67.28;52.97;82.57;;
72276;Laerm;61204;49.980;8.358;2024-03-22T13:20:57;67.39;52.95;86.64;;
72276;Laerm;61204;49.980;8.358;2024-03-22T13:23:23;65.84;53.47;80.34;;
72276;Laerm;61204;49.980;8.358;2024-03-22T13:25:48;65.96;52.63;79.95;;
72276;Laerm;61204;49.980;8.358;2024-03-22T13:28:14;66.18;51.92;80.33;;
72276;Laerm;61204;49.980;8.358;2024-03-22T13:30:40;63.28;51.99;79.41;;
72276;Laerm;61204;49.980;8.358;2024-03-22T13:33:06;58.36;51.68;76.42;;
72276;Laerm;61204;49.980;8.358;2024-03-22T13:35:34;63.20;53.07;78.72;;
72276;Laerm;61204;49.980;8.358;2024-03-22T13:37:59;68.95;54.03;83.44;;
72276;Laerm;61204;49.980;8.358;2024-03-22T13:40:26;69.31;52.14;84.84;;
72276;Laerm;61204;49.980;8.358;2024-03-22T13:42:57;69.12;52.58;84.73;;